createdAt,value
2022-08-03T00:01:31.670Z,18.45
2022-08-03T00:03:58.582Z,18.46
2022-08-03T00:06:25.824Z,18.25
2022-08-03T00:08:52.755Z,18.27
2022-08-03T00:11:19.691Z,18.30
2022-08-03T00:13:46.883Z,18.60
2022-08-03T00:16:13.894Z,18.13
2022-08-03T00:18:41.002Z,18.22
2022-08-03T00:21:07.909Z,17.99
2022-08-03T00:23:51.184Z,17.96
2022-08-03T00:26:18.822Z,18.08
2022-08-03T00:28:45.744Z,18.18
2022-08-03T00:31:13.711Z,18.14
2022-08-03T00:33:58.034Z,18.08
2022-08-03T00:36:26.146Z,18.03
2022-08-03T00:38:53.030Z,18.01
2022-08-03T00:41:20.050Z,18.00
2022-08-03T00:43:47.858Z,18.03
2022-08-03T00:46:20.592Z,17.91
2022-08-03T00:48:51.622Z,17.86
2022-08-03T00:51:21.298Z,17.82
2022-08-03T00:53:48.567Z,17.80
2022-08-03T00:56:18.815Z,17.87
2022-08-03T00:58:47.193Z,17.64
2022-08-03T01:01:15.077Z,17.73
2022-08-03T01:03:42.367Z,17.61
2022-08-03T01:06:25.185Z,17.64
2022-08-03T01:09:00.365Z,17.61
2022-08-03T01:12:09.232Z,17.62
2022-08-03T01:14:46.795Z,17.58
2022-08-03T01:17:23.464Z,17.43
2022-08-03T01:20:04.421Z,17.31
2022-08-03T01:22:46.234Z,17.37
2022-08-03T01:25:31.980Z,17.29
2022-08-03T01:28:10.650Z,17.25
2022-08-03T01:30:44.469Z,17.22
2022-08-03T01:33:17.902Z,17.35
2022-08-03T01:35:49.831Z,17.42
2022-08-03T01:38:27.362Z,17.34
2022-08-03T01:40:56.846Z,17.26
2022-08-03T01:44:26.443Z,17.20
2022-08-03T01:46:20.708Z,17.16
2022-08-03T01:48:49.369Z,17.21
2022-08-03T01:51:20.214Z,17.24
2022-08-03T01:53:50.214Z,17.21
2022-08-03T01:56:19.285Z,17.26
2022-08-03T01:58:48.693Z,17.13
2022-08-03T02:01:17.505Z,17.16
2022-08-03T02:03:59.668Z,17.05
2022-08-03T02:07:00.173Z,17.07
2022-08-03T02:09:21.183Z,17.21
2022-08-03T02:11:49.698Z,17.12
2022-08-03T02:14:17.616Z,16.91
2022-08-03T02:16:46.189Z,16.99
2022-08-03T02:19:14.848Z,16.97
2022-08-03T02:21:57.194Z,16.95
2022-08-03T02:24:30.199Z,17.13
2022-08-03T02:26:58.497Z,17.20
2022-08-03T02:29:39.947Z,17.07
2022-08-03T02:32:14.631Z,17.06
2022-08-03T02:34:47.659Z,17.18
2022-08-03T02:37:18.220Z,17.07
2022-08-03T02:39:47.156Z,17.07
2022-08-03T02:42:17.357Z,17.14
2022-08-03T02:44:50.011Z,17.23
2022-08-03T02:47:21.497Z,17.21
2022-08-03T02:49:52.428Z,17.17
2022-08-03T02:52:25.718Z,17.24
2022-08-03T02:54:57.763Z,17.29
2022-08-03T02:57:26.761Z,17.30
2022-08-03T02:59:55.414Z,17.16
2022-08-03T03:02:24.367Z,17.18
2022-08-03T03:05:52.563Z,17.14
2022-08-03T03:07:51.549Z,17.19
2022-08-03T03:10:24.827Z,17.31
2022-08-03T03:12:58.046Z,17.33
2022-08-03T03:15:27.058Z,17.41
2022-08-03T03:17:55.170Z,17.30
2022-08-03T03:20:29.871Z,17.27
2022-08-03T03:23:00.842Z,17.12
2022-08-03T03:25:31.793Z,16.95
2022-08-03T03:28:00.788Z,17.01
2022-08-03T03:30:28.067Z,16.87
2022-08-03T03:32:55.479Z,17.02
2022-08-03T03:35:22.509Z,16.95
2022-08-03T03:37:49.712Z,16.87
2022-08-03T03:40:16.634Z,17.01
2022-08-03T03:42:43.717Z,16.90
2022-08-03T03:45:12.741Z,16.76
2022-08-03T03:47:39.729Z,16.85
2022-08-03T03:50:07.585Z,16.87
2022-08-03T03:52:36.724Z,16.91
2022-08-03T03:55:03.884Z,17.09
2022-08-03T03:57:30.797Z,17.19
2022-08-03T03:59:57.902Z,17.20
2022-08-03T04:02:25.026Z,17.33
2022-08-03T04:05:10.659Z,17.34
2022-08-03T04:08:11.956Z,17.33
2022-08-03T04:11:00.338Z,17.50
2022-08-03T04:13:35.447Z,17.60
2022-08-03T04:16:04.400Z,17.74
2022-08-03T04:18:34.160Z,17.76
2022-08-03T04:21:08.739Z,17.83
2022-08-03T04:23:40.891Z,17.97
2022-08-03T04:26:12.245Z,18.09
2022-08-03T04:28:42.015Z,18.19
2022-08-03T04:31:09.088Z,18.27
2022-08-03T04:33:38.956Z,18.36
2022-08-03T04:36:09.352Z,18.56
2022-08-03T04:38:44.434Z,18.54
2022-08-03T04:41:12.761Z,18.46
2022-08-03T04:43:41.922Z,18.61
2022-08-03T04:46:10.044Z,18.64
2022-08-03T04:48:37.486Z,18.72
2022-08-03T04:51:04.623Z,18.82
2022-08-03T04:53:31.583Z,18.85
2022-08-03T04:56:05.782Z,18.88
2022-08-03T04:58:33.236Z,18.99
2022-08-03T05:01:00.141Z,19.14
2022-08-03T05:03:27.070Z,19.25
2022-08-03T05:06:10.061Z,19.31
2022-08-03T05:08:46.204Z,19.45
2022-08-03T05:11:16.444Z,19.68
2022-08-03T05:13:44.609Z,19.72
2022-08-03T05:16:12.595Z,19.91
2022-08-03T05:18:39.943Z,20.04
2022-08-03T05:21:06.887Z,20.22
2022-08-03T05:23:33.901Z,20.41
2022-08-03T05:26:00.821Z,20.69
2022-08-03T05:28:27.735Z,20.79
2022-08-03T05:30:54.602Z,20.97
2022-08-03T05:33:21.538Z,21.13
2022-08-03T05:36:02.640Z,21.35
2022-08-03T05:38:34.913Z,21.51
2022-08-03T05:41:22.399Z,21.71
2022-08-03T05:43:55.043Z,21.97
2022-08-03T05:46:23.415Z,22.20
2022-08-03T05:48:50.581Z,22.40
2022-08-03T05:51:17.645Z,22.65
2022-08-03T05:53:44.881Z,22.75
2022-08-03T05:56:14.238Z,22.90
2022-08-03T05:58:47.727Z,23.08
2022-08-03T06:01:16.983Z,23.19
2022-08-03T06:03:45.286Z,23.21
2022-08-03T06:06:12.219Z,23.29
2022-08-03T06:08:40.529Z,23.52
2022-08-03T06:11:07.714Z,23.52
2022-08-03T06:13:35.513Z,23.60
2022-08-03T06:16:02.686Z,23.63
2022-08-03T06:18:29.589Z,23.75
2022-08-03T06:20:56.666Z,23.66
2022-08-03T06:23:37.870Z,23.74
2022-08-03T06:26:10.629Z,23.77
2022-08-03T06:28:52.424Z,23.90
2022-08-03T06:31:32.308Z,23.86
2022-08-03T06:34:34.739Z,24.03
2022-08-03T06:36:50.198Z,24.06
2022-08-03T06:39:18.646Z,24.13
2022-08-03T06:41:45.754Z,24.24
2022-08-03T06:44:13.211Z,24.39
2022-08-03T06:46:40.708Z,24.43
2022-08-03T06:49:08.010Z,24.14
2022-08-03T06:52:04.186Z,24.49
2022-08-03T06:54:22.467Z,24.66
2022-08-03T06:56:49.403Z,24.79
2022-08-03T07:00:10.871Z,25.07
2022-08-03T07:02:03.905Z,25.23
2022-08-03T07:04:30.766Z,25.38
2022-08-03T07:06:57.602Z,25.36
2022-08-03T07:09:26.535Z,25.64
2022-08-03T07:11:53.447Z,25.89
2022-08-03T07:14:20.357Z,25.87
2022-08-03T07:16:47.412Z,26.01
2022-08-03T07:19:14.304Z,25.97
2022-08-03T07:21:41.170Z,26.15
2022-08-03T07:24:08.109Z,26.08
2022-08-03T07:26:34.979Z,26.33
2022-08-03T07:29:01.861Z,26.28
2022-08-03T07:31:28.845Z,26.26
2022-08-03T07:34:01.511Z,26.31
2022-08-03T07:36:28.497Z,26.23
2022-08-03T07:38:55.423Z,26.53
2022-08-03T07:41:22.382Z,26.45
2022-08-03T07:43:49.398Z,26.31
2022-08-03T07:46:16.314Z,26.47
2022-08-03T07:48:43.243Z,26.84
2022-08-03T07:51:10.140Z,26.77
2022-08-03T07:53:37.831Z,26.78
2022-08-03T07:56:11.600Z,27.09
2022-08-03T07:58:38.521Z,27.06
2022-08-03T08:01:05.504Z,27.00
2022-08-03T08:03:52.377Z,27.33
2022-08-03T08:06:19.430Z,27.21
2022-08-03T08:08:47.005Z,27.15
2022-08-03T08:11:13.898Z,27.17
2022-08-03T08:13:40.782Z,27.07
2022-08-03T08:16:07.745Z,27.26
2022-08-03T08:18:34.700Z,27.32
2022-08-03T08:21:04.306Z,27.71
2022-08-03T08:23:42.799Z,27.69
2022-08-03T08:26:11.225Z,27.75
2022-08-03T08:28:38.181Z,28.04
2022-08-03T08:31:05.261Z,28.33
2022-08-03T08:33:54.266Z,28.32
2022-08-03T08:36:20.209Z,28.51
2022-08-03T08:38:47.365Z,28.42
2022-08-03T08:41:15.820Z,28.58
2022-08-03T08:43:43.161Z,28.81
2022-08-03T08:46:23.813Z,28.99
2022-08-03T08:48:52.426Z,29.03
2022-08-03T08:51:21.570Z,29.05
2022-08-03T08:53:52.822Z,28.98
2022-08-03T08:56:20.701Z,29.43
2022-08-03T08:58:51.820Z,29.58
2022-08-03T09:01:20.169Z,29.35
2022-08-03T09:03:47.730Z,29.51
2022-08-03T09:06:15.274Z,29.74
2022-08-03T09:08:42.250Z,29.69
2022-08-03T09:11:09.584Z,29.53
2022-08-03T09:13:39.425Z,29.76
2022-08-03T09:16:15.711Z,29.74
2022-08-03T09:18:44.663Z,30.10
2022-08-03T09:21:30.252Z,30.20
2022-08-03T09:24:04.129Z,30.05
2022-08-03T09:26:34.328Z,30.04
2022-08-03T09:29:14.809Z,30.44
2022-08-03T09:31:46.222Z,30.51
2022-08-03T09:34:16.491Z,30.39
2022-08-03T09:36:50.868Z,30.51
2022-08-03T09:39:19.827Z,30.55
2022-08-03T09:42:09.425Z,30.40
2022-08-03T09:44:42.370Z,30.52
2022-08-03T09:47:12.784Z,29.81
2022-08-03T09:49:41.754Z,29.82
2022-08-03T09:52:39.352Z,30.42
2022-08-03T09:56:32.633Z,30.83
2022-08-03T09:58:10.554Z,30.96
2022-08-03T10:00:59.925Z,31.26
2022-08-03T10:03:29.549Z,30.97
2022-08-03T10:05:59.807Z,30.65
2022-08-03T10:08:27.079Z,30.08
2022-08-03T10:10:54.865Z,29.88
2022-08-03T10:13:23.492Z,29.69
2022-08-03T10:16:23.485Z,29.71
2022-08-03T10:18:38.261Z,29.87
2022-08-03T10:21:10.580Z,30.21
2022-08-03T10:23:40.583Z,30.59
2022-08-03T10:26:10.474Z,30.78
2022-08-03T10:28:47.375Z,31.00
2022-08-03T10:31:16.582Z,30.96
2022-08-03T10:33:52.011Z,31.01
2022-08-03T10:36:23.399Z,31.47
2022-08-03T10:38:56.676Z,31.48
2022-08-03T10:41:31.217Z,31.31
2022-08-03T10:44:09.705Z,31.49
2022-08-03T10:46:44.464Z,31.50
2022-08-03T10:49:16.789Z,31.51
2022-08-03T10:52:00.128Z,31.91
2022-08-03T10:55:07.613Z,31.01
2022-08-03T10:57:56.223Z,30.42
2022-08-03T11:00:27.419Z,30.72
2022-08-03T11:03:16.756Z,30.96
2022-08-03T11:05:46.285Z,31.13
2022-08-03T11:08:20.081Z,31.12
2022-08-03T11:10:48.230Z,30.62
2022-08-03T11:13:21.957Z,31.21
2022-08-03T11:15:52.296Z,31.25
2022-08-03T11:18:19.505Z,31.67
2022-08-03T11:20:52.497Z,31.64
2022-08-03T11:24:05.421Z,31.10
2022-08-03T11:26:28.287Z,31.63
2022-08-03T11:29:28.148Z,31.22
2022-08-03T11:31:55.103Z,31.30
2022-08-03T11:34:22.054Z,31.38
2022-08-03T11:37:28.571Z,31.68
2022-08-03T11:39:58.363Z,31.63
2022-08-03T11:42:26.394Z,31.99
2022-08-03T11:44:56.163Z,31.98
2022-08-03T11:47:27.062Z,32.23
2022-08-03T11:49:59.255Z,32.17
2022-08-03T11:52:26.954Z,32.42
2022-08-03T11:54:57.092Z,32.68
2022-08-03T11:59:19.156Z,32.39
2022-08-03T12:00:33.168Z,33.03
2022-08-03T12:03:09.009Z,33.30
2022-08-03T12:05:53.602Z,33.37
2022-08-03T12:08:27.778Z,33.22
2022-08-03T12:10:56.689Z,33.46
2022-08-03T12:14:44.262Z,33.71
2022-08-03T12:16:19.707Z,34.09
2022-08-03T12:18:57.260Z,34.12
2022-08-03T12:21:27.193Z,34.13
2022-08-03T12:24:00.372Z,34.17
2022-08-03T12:26:29.199Z,34.25
2022-08-03T12:28:57.050Z,33.67
2022-08-03T12:31:24.934Z,33.59
2022-08-03T12:34:00.274Z,33.24
2022-08-03T12:36:28.582Z,32.98
2022-08-03T12:39:07.183Z,32.67
2022-08-03T12:41:36.870Z,32.25
2022-08-03T12:44:06.168Z,32.26
2022-08-03T12:46:42.732Z,32.48
2022-08-03T12:49:17.475Z,32.77
2022-08-03T12:51:44.291Z,33.17
2022-08-03T12:54:24.873Z,33.69
2022-08-03T12:57:16.237Z,33.83
2022-08-03T12:59:53.898Z,33.76
2022-08-03T13:02:24.158Z,33.41
2022-08-03T13:04:55.149Z,32.84
2022-08-03T13:07:25.194Z,32.69
2022-08-03T13:09:54.954Z,32.28
2022-08-03T13:12:23.305Z,32.21
2022-08-03T13:14:52.338Z,32.48
2022-08-03T13:17:20.258Z,32.32
2022-08-03T13:19:48.425Z,32.43
2022-08-03T13:22:15.468Z,32.35
2022-08-03T13:24:44.062Z,31.81
2022-08-03T13:28:00.041Z,32.31
2022-08-03T13:29:58.776Z,32.73
2022-08-03T13:32:25.840Z,33.06
2022-08-03T13:34:52.947Z,32.18
2022-08-03T13:37:20.047Z,31.62
2022-08-03T13:39:48.203Z,32.15
2022-08-03T13:42:27.877Z,32.27
2022-08-03T13:44:54.764Z,32.53
2022-08-03T13:47:21.957Z,32.89
2022-08-03T13:49:54.201Z,33.12
2022-08-03T13:52:34.405Z,32.30
2022-08-03T13:55:03.337Z,32.66
2022-08-03T13:58:02.873Z,33.05
2022-08-03T14:00:26.124Z,32.92
2022-08-03T14:03:15.356Z,33.04
2022-08-03T14:05:43.740Z,33.08
2022-08-03T14:08:11.567Z,33.13
2022-08-03T14:10:41.875Z,33.20
2022-08-03T14:13:10.548Z,33.38
2022-08-03T14:15:38.676Z,33.24
2022-08-03T14:18:12.631Z,33.38
2022-08-03T14:20:49.125Z,33.14
2022-08-03T14:23:18.427Z,32.74
2022-08-03T14:25:51.858Z,33.05
2022-08-03T14:28:21.096Z,33.14
2022-08-03T14:30:48.799Z,32.89
2022-08-03T14:33:16.009Z,33.23
2022-08-03T14:35:43.388Z,32.92
2022-08-03T14:38:10.360Z,33.37
2022-08-03T14:40:37.250Z,33.82
2022-08-03T14:43:05.885Z,33.73
2022-08-03T14:45:32.854Z,33.23
2022-08-03T14:50:32.949Z,32.62
2022-08-03T14:50:51.281Z,33.01
2022-08-03T14:53:19.874Z,32.62
2022-08-03T14:55:50.761Z,32.84
2022-08-03T14:58:22.203Z,32.79
2022-08-03T15:00:50.856Z,33.16
2022-08-03T15:03:23.873Z,33.00
2022-08-03T15:05:56.771Z,32.86
2022-08-03T15:08:25.058Z,33.23
2022-08-03T15:10:53.137Z,33.16
2022-08-03T15:13:20.417Z,33.08
2022-08-03T15:15:48.294Z,33.03
2022-08-03T15:18:15.464Z,32.89
2022-08-03T15:20:45.376Z,33.23
2022-08-03T15:23:14.916Z,33.24
2022-08-03T15:26:32.314Z,33.28
2022-08-03T15:28:30.355Z,32.58
2022-08-03T15:30:58.484Z,32.11
2022-08-03T15:33:25.405Z,32.73
2022-08-03T15:35:53.168Z,32.14
2022-08-03T15:38:26.176Z,32.39
2022-08-03T15:40:55.144Z,32.50
2022-08-03T15:43:23.418Z,32.26
2022-08-03T15:46:18.903Z,32.20
2022-08-03T15:48:37.563Z,32.22
2022-08-03T15:51:05.451Z,32.12
2022-08-03T15:53:33.391Z,31.80
2022-08-03T15:56:03.223Z,31.72
2022-08-03T15:59:11.880Z,31.54
2022-08-03T16:01:20.480Z,31.53
2022-08-03T16:03:47.634Z,31.65
2022-08-03T16:06:14.985Z,31.77
2022-08-03T16:08:41.897Z,31.87
2022-08-03T16:11:09.010Z,31.56
2022-08-03T16:14:11.896Z,31.34
2022-08-03T16:16:23.100Z,31.25
2022-08-03T16:18:50.061Z,31.02
2022-08-03T16:21:19.328Z,30.72
2022-08-03T16:23:47.287Z,30.42
2022-08-03T16:26:14.558Z,30.51
2022-08-03T16:28:41.613Z,30.57
2022-08-03T16:31:09.253Z,30.40
2022-08-03T16:33:36.558Z,30.39
2022-08-03T16:36:03.868Z,30.32
2022-08-03T16:38:31.377Z,30.28
2022-08-03T16:40:58.517Z,30.32
2022-08-03T16:43:25.674Z,30.19
2022-08-03T16:45:52.747Z,30.28
2022-08-03T16:48:19.716Z,30.37
2022-08-03T16:50:47.065Z,30.49
2022-08-03T16:53:17.091Z,30.34
2022-08-03T16:55:53.946Z,30.33
2022-08-03T16:58:34.312Z,30.28
2022-08-03T17:01:24.233Z,30.37
2022-08-03T17:04:01.698Z,30.23
2022-08-03T17:06:35.537Z,30.12
2022-08-03T17:09:08.975Z,29.95
2022-08-03T17:11:46.898Z,30.00
2022-08-03T17:14:17.118Z,29.91
2022-08-03T17:16:53.055Z,29.88
2022-08-03T17:19:23.761Z,29.88
2022-08-03T17:22:01.782Z,29.84
2022-08-03T17:24:41.414Z,29.59
2022-08-03T17:28:41.571Z,29.58
2022-08-03T17:30:13.497Z,29.56
2022-08-03T17:32:56.637Z,29.53
2022-08-03T17:35:24.806Z,29.64
2022-08-03T17:38:05.725Z,29.40
2022-08-03T17:40:34.711Z,29.38
2022-08-03T17:44:13.477Z,29.31
2022-08-03T17:45:54.819Z,29.22
2022-08-03T17:48:25.188Z,29.03
2022-08-03T17:51:07.894Z,28.49
2022-08-03T17:53:53.846Z,28.08
2022-08-03T17:56:40.812Z,27.86
2022-08-03T17:59:52.168Z,27.72
2022-08-03T18:02:51.953Z,27.58
2022-08-03T18:05:21.869Z,27.19
2022-08-03T18:07:59.472Z,27.02
2022-08-03T18:10:35.124Z,26.69
2022-08-03T18:13:20.842Z,26.37
2022-08-03T18:15:54.939Z,26.25
2022-08-03T18:18:32.725Z,26.10
2022-08-03T18:21:09.382Z,25.96
2022-08-03T18:23:45.947Z,25.62
2022-08-03T18:26:17.296Z,25.44
2022-08-03T18:28:44.736Z,25.27
2022-08-03T18:32:00.445Z,25.07
2022-08-03T18:34:32.666Z,24.66
2022-08-03T18:36:50.445Z,24.53
2022-08-03T18:39:19.683Z,24.12
2022-08-03T18:41:46.954Z,24.04
2022-08-03T18:44:46.540Z,24.06
2022-08-03T18:47:16.193Z,23.85
2022-08-03T18:49:58.753Z,23.78
2022-08-03T18:52:45.701Z,23.76
2022-08-03T18:55:33.561Z,23.65
2022-08-03T18:58:18.216Z,23.58
2022-08-03T19:00:54.737Z,23.30
2022-08-03T19:03:41.530Z,23.27
2022-08-03T19:06:19.918Z,23.20
2022-08-03T19:09:09.455Z,23.06
2022-08-03T19:12:12.646Z,23.30
2022-08-03T19:14:39.326Z,23.08
2022-08-03T19:17:12.083Z,22.95
2022-08-03T19:19:44.951Z,22.83
2022-08-03T19:22:19.610Z,22.80
2022-08-03T19:24:52.954Z,22.76
2022-08-03T19:27:26.759Z,22.67
2022-08-03T19:29:58.580Z,22.55
2022-08-03T19:32:30.735Z,22.48
2022-08-03T19:35:00.582Z,22.42
2022-08-03T19:37:38.043Z,22.33
2022-08-03T19:40:10.700Z,22.28
2022-08-03T19:42:44.620Z,22.23
2022-08-03T19:45:17.172Z,22.10
2022-08-03T19:47:58.750Z,21.99
2022-08-03T19:50:26.720Z,21.71
2022-08-03T19:52:58.551Z,21.67
2022-08-03T19:55:28.893Z,21.57
2022-08-03T19:58:01.286Z,21.57
2022-08-03T20:00:34.031Z,21.48
2022-08-03T20:03:21.697Z,21.47
2022-08-03T20:05:52.309Z,21.34
2022-08-03T20:08:22.045Z,21.20
2022-08-03T20:10:49.804Z,21.17
2022-08-03T20:13:19.585Z,21.15
2022-08-03T20:15:46.652Z,21.14
2022-08-03T20:18:16.751Z,21.05
2022-08-03T20:20:48.531Z,20.96
2022-08-03T20:23:19.223Z,20.94
2022-08-03T20:25:57.448Z,20.83
2022-08-03T20:28:50.180Z,20.77
2022-08-03T20:31:20.837Z,20.63
2022-08-03T20:33:50.789Z,20.50
2022-08-03T20:36:18.828Z,20.51
2022-08-03T20:38:48.036Z,20.44
2022-08-03T20:41:18.694Z,20.09
2022-08-03T20:43:46.345Z,20.12
2022-08-03T20:46:31.355Z,19.93
2022-08-03T20:49:04.053Z,19.97
2022-08-03T20:51:49.762Z,19.81
2022-08-03T20:54:30.506Z,19.81
2022-08-03T20:57:03.722Z,19.73
2022-08-03T20:59:47.687Z,19.73
2022-08-03T21:02:29.137Z,19.69
2022-08-03T21:08:06.411Z,19.67
2022-08-03T21:10:38.169Z,19.65
2022-08-03T21:13:13.955Z,19.63
2022-08-03T21:13:16.885Z,19.60
2022-08-03T21:16:06.649Z,19.56
2022-08-03T21:18:38.501Z,19.58
2022-08-03T21:21:06.792Z,19.46
2022-08-03T21:23:47.699Z,19.40
2022-08-03T21:26:17.442Z,19.42
2022-08-03T21:28:46.663Z,19.46
2022-08-03T21:31:14.574Z,19.42
2022-08-03T21:33:51.698Z,19.41
2022-08-03T21:36:18.887Z,19.34
2022-08-03T21:38:55.817Z,19.20
2022-08-03T21:41:28.329Z,19.09
2022-08-03T21:47:13.420Z,19.01
2022-08-03T21:50:06.954Z,18.88
2022-08-03T21:52:33.911Z,18.90
2022-08-03T21:55:05.457Z,18.71
2022-08-03T21:57:34.257Z,18.58
2022-08-03T22:00:17.244Z,18.68
2022-08-03T22:02:56.066Z,18.62
2022-08-03T22:05:42.946Z,18.63
2022-08-03T22:08:15.456Z,18.65
2022-08-03T22:10:46.373Z,18.62
2022-08-03T22:13:23.318Z,18.63
2022-08-03T22:16:05.673Z,18.50
2022-08-03T22:18:35.823Z,18.46
2022-08-03T22:21:03.933Z,18.37
2022-08-03T22:23:31.691Z,18.30
2022-08-03T22:26:03.640Z,18.14
2022-08-03T22:28:31.052Z,18.11
2022-08-03T22:30:59.234Z,18.20
2022-08-03T22:33:48.469Z,18.12
2022-08-03T22:36:19.135Z,18.23
2022-08-03T22:38:48.190Z,18.20
2022-08-03T22:41:15.868Z,18.15
2022-08-03T22:43:43.483Z,18.06
2022-08-03T22:46:15.585Z,18.08
2022-08-03T22:48:47.458Z,18.12
2022-08-03T22:51:16.050Z,18.04
2022-08-03T22:53:46.224Z,18.00
2022-08-03T22:56:14.585Z,18.05
2022-08-03T22:58:41.541Z,18.02
2022-08-03T23:01:11.583Z,17.76
2022-08-03T23:03:59.119Z,17.64
2022-08-03T23:06:34.616Z,17.75
2022-08-03T23:09:07.594Z,17.75
2022-08-03T23:11:42.847Z,17.60
2022-08-03T23:14:19.445Z,17.77
2022-08-03T23:16:47.478Z,17.73
2022-08-03T23:19:17.303Z,17.58
2022-08-03T23:22:00.046Z,17.31
2022-08-03T23:24:30.479Z,17.23
2022-08-03T23:26:58.471Z,17.19
2022-08-03T23:29:28.914Z,17.19
2022-08-03T23:31:56.480Z,17.09
2022-08-03T23:34:42.609Z,17.32
2022-08-03T23:37:09.786Z,17.38
2022-08-03T23:39:37.328Z,17.44
2022-08-03T23:42:06.118Z,17.28
2022-08-03T23:44:36.865Z,17.19
2022-08-03T23:47:03.881Z,17.06
2022-08-03T23:49:30.972Z,17.06
2022-08-03T23:52:07.380Z,16.99
2022-08-03T23:54:57.155Z,17.09
2022-08-03T23:57:35.903Z,17.07
